Pagrindinis puslapis
METAR-TAF:

METAR-TAF

Oro uostai :

Karakasas, Venesuela

platuma: 10-36N, ilguma: 066-59W, Aukštis: 43 m

Dabartinis oras

Ataskaita buvo paskelbta 23 minutes, ne 14:00 UTC
Vėjas 6 kt iš Rytų
Temperatūra 29°C
Drėgmė 66%
Slėgis 1012 hPa
Matomumas 10 km arba daugiau
Išsisklaidę debesys ne aukštis 1600 ft

METAR: SVMI 071400Z 09006KT 9999 SCT016 29/22 Q1012

Laikas: 10:23 (14:23 UTC)

Prognozė

Ataskaita buvo paskelbta 4 valandos ir 23 minutes, ne 10:00 UTC
Prognozė galioja nuo 07 metu 12 UTC su 08 metu 12 UTC
Vėjas 6 kt iš Rytų
Matomumas 10 km arba daugiau
Mažai debesys ne aukštis 1600 ft
Išsisklaidę debesys ne aukštis 10000 ft
Tapsmas
nuo 07 metu 12 UTC su 07 metu 16 UTC
Vėjas 2 kt iš Rytų
Išsisklaidę debesys ne aukštis 1600 ft

TAF: SVMI 071000Z 0712/0812 09006KT 9999 FEW016 SCT100 TX30/18Z TN25/08Z BECMG 0712/0716 09002KT SCT016

Orai ataskaitas ir orų prognozės (METAR, TAF).

turimą stotys yra geltonos ir raudonos taškus žemėlapyje.

Perkelti pele per norėdami pamatyti stoties vardą.

Tada spustelėkite, norėdami matyti oro stebėjimo ir prognozės.

Norėdami pakeisti žemėlapį: spustelėkite ant žalios mygtukų su juodo kryžiaus žemyn,; žalią mygtuką su brūkšneliu, jei norite nutolinti; arba žalių rodyklių gretimoms žemėlapius.


METAR-TAF: